SWA416 KLAX-KLAS
Flight info
| Callsign | SWA416 |
|---|---|
| Flight time | 0h 48m |
| Altitude | 27000 |
| Route | OSHNN1 MISEN RNDRZ4 |
| Aircraft | B738/M-SDE2E3FGHIRWXY/LB1 |
Departure
| Time | 2026-05-04 05:15 |
|---|---|
| Airport | Los Angeles International Airport (KLAX) |
Arrival
| Time | 2026-05-04 06:03 |
|---|---|
| Airport | Harry Reid International Airport (KLAS) |
| Time | Latitude | Longitude | Altitude | Speed | Heading |
|---|---|---|---|---|---|
| 2026-05-04 04:45 | 33.94723 | -118.40190 | 92 ft | 0 kts | 84° |
| 2026-05-04 05:06 | 33.94723 | -118.40191 | 92 ft | 1 kts | 84° |
| 2026-05-04 05:06 | 33.94720 | -118.40220 | 92 ft | 4 kts | 76° |
| 2026-05-04 05:07 | 33.94710 | -118.40247 | 92 ft | 4 kts | 37° |
| 2026-05-04 05:07 | 33.94698 | -118.40254 | 92 ft | 0 kts | 352° |
| 2026-05-04 05:10 | 33.94700 | -118.40254 | 92 ft | 3 kts | 352° |
| 2026-05-04 05:11 | 33.94739 | -118.40260 | 92 ft | 6 kts | 352° |
| 2026-05-04 05:11 | 33.94781 | -118.40267 | 92 ft | 6 kts | 352° |
| 2026-05-04 05:11 | 33.94824 | -118.40281 | 93 ft | 8 kts | 339° |
| 2026-05-04 05:11 | 33.94870 | -118.40288 | 94 ft | 1 kts | 15° |
| 2026-05-04 05:12 | 33.94886 | -118.40276 | 94 ft | 3 kts | 46° |
| 2026-05-04 05:12 | 33.94902 | -118.40213 | 94 ft | 14 kts | 82° |
| 2026-05-04 05:12 | 33.94914 | -118.40104 | 94 ft | 11 kts | 82° |
| 2026-05-04 05:12 | 33.94924 | -118.40011 | 92 ft | 11 kts | 83° |
| 2026-05-04 05:13 | 33.94942 | -118.39936 | 92 ft | 4 kts | 53° |
| 2026-05-04 05:13 | 33.94969 | -118.39916 | 93 ft | 6 kts | 17° |
| 2026-05-04 05:13 | 33.95028 | -118.39922 | 92 ft | 9 kts | 328° |
| 2026-05-04 05:13 | 33.95037 | -118.39985 | 95 ft | 0 kts | 263° |
| 2026-05-04 05:14 | 33.95037 | -118.39986 | 95 ft | 1 kts | 263° |
| 2026-05-04 05:14 | 33.95013 | -118.40212 | 98 ft | 66 kts | 263° |
| 2026-05-04 05:14 | 33.94923 | -118.41085 | 96 ft | 141 kts | 263° |
| 2026-05-04 05:14 | 33.94810 | -118.42474 | 465 ft | 176 kts | 269° |
| 2026-05-04 05:15 | 33.94779 | -118.43868 | 1712 ft | 161 kts | 268° |
| 2026-05-04 05:15 | 33.94687 | -118.45179 | 2635 ft | 157 kts | 265° |
| 2026-05-04 05:15 | 33.94538 | -118.46594 | 2903 ft | 186 kts | 261° |
| 2026-05-04 05:15 | 33.94345 | -118.48181 | 3369 ft | 200 kts | 262° |
| 2026-05-04 05:16 | 33.94181 | -118.49868 | 3900 ft | 202 kts | 263° |
| 2026-05-04 05:16 | 33.93996 | -118.51514 | 4627 ft | 197 kts | 263° |
| 2026-05-04 05:16 | 33.93846 | -118.53258 | 4781 ft | 223 kts | 264° |
| 2026-05-04 05:16 | 33.93669 | -118.55145 | 5251 ft | 232 kts | 262° |
| 2026-05-04 05:17 | 33.93412 | -118.57225 | 5014 ft | 258 kts | 257° |
| 2026-05-04 05:17 | 33.92815 | -118.59210 | 5381 ft | 259 kts | 238° |
| 2026-05-04 05:17 | 33.91528 | -118.60755 | 5517 ft | 264 kts | 216° |
| 2026-05-04 05:17 | 33.90034 | -118.62008 | 6094 ft | 262 kts | 210° |
| 2026-05-04 05:18 | 33.88407 | -118.63028 | 6767 ft | 267 kts | 203° |
| 2026-05-04 05:18 | 33.86571 | -118.63515 | 7434 ft | 273 kts | 187° |
| 2026-05-04 05:18 | 33.84662 | -118.63595 | 8137 ft | 276 kts | 178° |
| 2026-05-04 05:18 | 33.82812 | -118.62900 | 8718 ft | 287 kts | 152° |
| 2026-05-04 05:19 | 33.81151 | -118.61550 | 9230 ft | 290 kts | 148° |
| 2026-05-04 05:19 | 33.79501 | -118.60136 | 9750 ft | 292 kts | 147° |
| 2026-05-04 05:19 | 33.77841 | -118.58726 | 10254 ft | 292 kts | 149° |
| 2026-05-04 05:19 | 33.76172 | -118.57336 | 10746 ft | 292 kts | 149° |
| 2026-05-04 05:20 | 33.74497 | -118.55962 | 11240 ft | 291 kts | 150° |
| 2026-05-04 05:20 | 33.72821 | -118.54599 | 11725 ft | 291 kts | 150° |
| 2026-05-04 05:20 | 33.71142 | -118.53237 | 12221 ft | 292 kts | 150° |
| 2026-05-04 05:20 | 33.69662 | -118.51531 | 12686 ft | 304 kts | 126° |
| 2026-05-04 05:21 | 33.68781 | -118.49193 | 13185 ft | 311 kts | 114° |
| 2026-05-04 05:21 | 33.68068 | -118.46723 | 13703 ft | 314 kts | 113° |
| 2026-05-04 05:21 | 33.67364 | -118.44232 | 14197 ft | 318 kts | 111° |
| 2026-05-04 05:21 | 33.66634 | -118.41689 | 14672 ft | 327 kts | 114° |
| 2026-05-04 05:22 | 33.65868 | -118.39079 | 15165 ft | 336 kts | 115° |
| 2026-05-04 05:22 | 33.65076 | -118.36407 | 15677 ft | 342 kts | 115° |
| 2026-05-04 05:22 | 33.64399 | -118.33637 | 16180 ft | 355 kts | 101° |
| 2026-05-04 05:22 | 33.64354 | -118.30617 | 16594 ft | 368 kts | 92° |
| 2026-05-04 05:23 | 33.64421 | -118.27563 | 17060 ft | 374 kts | 92° |
| 2026-05-04 05:23 | 33.64455 | -118.24383 | 17547 ft | 379 kts | 94° |
| 2026-05-04 05:23 | 33.64524 | -118.21197 | 18023 ft | 387 kts | 85° |
| 2026-05-04 05:23 | 33.65352 | -118.18107 | 18444 ft | 394 kts | 59° |
| 2026-05-04 05:24 | 33.67042 | -118.15542 | 18831 ft | 391 kts | 36° |
| 2026-05-04 05:24 | 33.69190 | -118.13543 | 19269 ft | 391 kts | 31° |
| 2026-05-04 05:24 | 33.71395 | -118.11616 | 19730 ft | 394 kts | 30° |
| 2026-05-04 05:24 | 33.73622 | -118.09684 | 20185 ft | 396 kts | 30° |
| 2026-05-04 05:25 | 33.75854 | -118.07730 | 20625 ft | 398 kts | 30° |
| 2026-05-04 05:25 | 33.78088 | -118.05752 | 21077 ft | 400 kts | 31° |
| 2026-05-04 05:25 | 33.80295 | -118.03781 | 21539 ft | 401 kts | 31° |
| 2026-05-04 05:25 | 33.82537 | -118.01767 | 22007 ft | 403 kts | 31° |
| 2026-05-04 05:26 | 33.84785 | -117.99744 | 22506 ft | 405 kts | 31° |
| 2026-05-04 05:26 | 33.87046 | -117.97709 | 23011 ft | 407 kts | 31° |
| 2026-05-04 05:26 | 33.89321 | -117.95661 | 23511 ft | 411 kts | 31° |
| 2026-05-04 05:26 | 33.91626 | -117.93581 | 23951 ft | 415 kts | 31° |
| 2026-05-04 05:27 | 33.93937 | -117.91474 | 24374 ft | 419 kts | 31° |
| 2026-05-04 05:28 | 34.10377 | -117.75985 | 27467 ft | 443 kts | 43° |
| 2026-05-04 05:29 | 34.12352 | -117.73120 | 27894 ft | 445 kts | 47° |
| 2026-05-04 05:29 | 34.14256 | -117.70170 | 28299 ft | 446 kts | 47° |
| 2026-05-04 05:29 | 34.16152 | -117.67210 | 28695 ft | 446 kts | 47° |
| 2026-05-04 05:29 | 34.18072 | -117.64257 | 29090 ft | 447 kts | 46° |
| 2026-05-04 05:31 | 34.31150 | -117.44730 | 31153 ft | 453 kts | 45° |
| 2026-05-04 05:31 | 34.33134 | -117.41766 | 31405 ft | 455 kts | 44° |
| 2026-05-04 05:32 | 34.35128 | -117.38787 | 31628 ft | 457 kts | 44° |
| 2026-05-04 05:32 | 34.37133 | -117.35787 | 31841 ft | 459 kts | 44° |
| 2026-05-04 05:32 | 34.39141 | -117.32779 | 32041 ft | 461 kts | 44° |
| 2026-05-04 05:33 | 34.43264 | -117.26610 | 31786 ft | 486 kts | 44° |
| 2026-05-04 05:33 | 34.45423 | -117.23375 | 31627 ft | 501 kts | 45° |
| 2026-05-04 05:33 | 34.47636 | -117.20047 | 31422 ft | 515 kts | 45° |
| 2026-05-04 05:33 | 34.49912 | -117.16614 | 31135 ft | 529 kts | 46° |
| 2026-05-04 05:34 | 34.52240 | -117.13099 | 30926 ft | 541 kts | 46° |
| 2026-05-04 05:34 | 34.54614 | -117.09517 | 30695 ft | 545 kts | 46° |
| 2026-05-04 05:34 | 34.57006 | -117.05973 | 30453 ft | 540 kts | 46° |
| 2026-05-04 05:34 | 34.59392 | -117.02498 | 30213 ft | 533 kts | 46° |
| 2026-05-04 05:35 | 34.61762 | -116.99069 | 29942 ft | 527 kts | 46° |
| 2026-05-04 05:35 | 34.64109 | -116.95674 | 29695 ft | 523 kts | 46° |
| 2026-05-04 05:35 | 34.66455 | -116.92273 | 29428 ft | 528 kts | 46° |
| 2026-05-04 05:35 | 34.68805 | -116.88853 | 29192 ft | 522 kts | 47° |
| 2026-05-04 05:36 | 34.71140 | -116.85441 | 28876 ft | 528 kts | 47° |
| 2026-05-04 05:36 | 34.73501 | -116.81984 | 28625 ft | 535 kts | 47° |
| 2026-05-04 05:36 | 34.75879 | -116.78496 | 28359 ft | 535 kts | 47° |
| 2026-05-04 05:36 | 34.78250 | -116.75011 | 28088 ft | 533 kts | 47° |
| 2026-05-04 05:37 | 34.80609 | -116.71542 | 27838 ft | 532 kts | 47° |
| 2026-05-04 05:37 | 34.82964 | -116.68081 | 27570 ft | 531 kts | 47° |
| 2026-05-04 05:37 | 34.85328 | -116.64635 | 27318 ft | 529 kts | 45° |
| 2026-05-04 05:38 | 34.90845 | -116.58826 | 26895 ft | 524 kts | 32° |
| 2026-05-04 05:38 | 34.93694 | -116.56228 | 26799 ft | 511 kts | 32° |
| 2026-05-04 05:38 | 34.96477 | -116.53664 | 26779 ft | 494 kts | 32° |
| 2026-05-04 05:38 | 34.99158 | -116.51133 | 26767 ft | 479 kts | 33° |
| 2026-05-04 05:39 | 35.01748 | -116.48639 | 26455 ft | 472 kts | 33° |
| 2026-05-04 05:39 | 35.06854 | -116.43665 | 25824 ft | 470 kts | 33° |
| 2026-05-04 05:39 | 35.09398 | -116.41185 | 25410 ft | 468 kts | 33° |
| 2026-05-04 05:40 | 35.14120 | -116.35682 | 24533 ft | 470 kts | 44° |
| 2026-05-04 05:40 | 35.16295 | -116.32715 | 24112 ft | 468 kts | 45° |
| 2026-05-04 05:40 | 35.18475 | -116.29758 | 23670 ft | 467 kts | 44° |
| 2026-05-04 05:41 | 35.20684 | -116.26852 | 23215 ft | 466 kts | 44° |
| 2026-05-04 05:41 | 35.22911 | -116.23976 | 22691 ft | 464 kts | 44° |
| 2026-05-04 05:41 | 35.25091 | -116.21082 | 22271 ft | 460 kts | 46° |
| 2026-05-04 05:41 | 35.27200 | -116.18164 | 21817 ft | 457 kts | 46° |
| 2026-05-04 05:42 | 35.29294 | -116.15252 | 21359 ft | 454 kts | 46° |
| 2026-05-04 05:42 | 35.31382 | -116.12369 | 20951 ft | 450 kts | 46° |
| 2026-05-04 05:42 | 35.33456 | -116.09521 | 20527 ft | 446 kts | 46° |
| 2026-05-04 05:42 | 35.35508 | -116.06704 | 20115 ft | 442 kts | 46° |
| 2026-05-04 05:43 | 35.37541 | -116.03913 | 19784 ft | 436 kts | 47° |
| 2026-05-04 05:43 | 35.39552 | -116.01148 | 19301 ft | 435 kts | 47° |
| 2026-05-04 05:43 | 35.41557 | -115.98389 | 18907 ft | 431 kts | 47° |
| 2026-05-04 05:45 | 35.54970 | -115.79865 | 16326 ft | 387 kts | 49° |
| 2026-05-04 05:45 | 35.56735 | -115.77420 | 16160 ft | 378 kts | 50° |
| 2026-05-04 05:47 | 35.68180 | -115.61879 | 14993 ft | 334 kts | 50° |
| 2026-05-04 05:47 | 35.69733 | -115.59777 | 14849 ft | 331 kts | 50° |
| 2026-05-04 05:47 | 35.71306 | -115.57647 | 14679 ft | 329 kts | 50° |
| 2026-05-04 05:48 | 35.72846 | -115.55653 | 14513 ft | 328 kts | 43° |
| 2026-05-04 05:48 | 35.74737 | -115.54088 | 14361 ft | 328 kts | 31° |
| 2026-05-04 05:48 | 35.76728 | -115.52729 | 14193 ft | 327 kts | 30° |
| 2026-05-04 05:48 | 35.78736 | -115.51373 | 14034 ft | 330 kts | 30° |
| 2026-05-04 05:49 | 35.80751 | -115.49998 | 13871 ft | 332 kts | 31° |
| 2026-05-04 05:49 | 35.82764 | -115.48608 | 13700 ft | 331 kts | 31° |
| 2026-05-04 05:49 | 35.84762 | -115.47214 | 13499 ft | 329 kts | 31° |
| 2026-05-04 05:49 | 35.86752 | -115.45820 | 13311 ft | 328 kts | 32° |
| 2026-05-04 05:51 | 36.00484 | -115.35301 | 11045 ft | 328 kts | 63° |
| 2026-05-04 05:51 | 36.01282 | -115.32884 | 10832 ft | 314 kts | 82° |
| 2026-05-04 05:52 | 36.01440 | -115.30263 | 10633 ft | 301 kts | 97° |
| 2026-05-04 05:52 | 36.01320 | -115.27702 | 10425 ft | 295 kts | 99° |
| 2026-05-04 05:52 | 36.01172 | -115.25191 | 10215 ft | 291 kts | 99° |
| 2026-05-04 05:52 | 36.01026 | -115.22722 | 10007 ft | 286 kts | 99° |
| 2026-05-04 05:53 | 36.00891 | -115.20289 | 9807 ft | 282 kts | 99° |
| 2026-05-04 05:54 | 36.00101 | -115.04848 | 8333 ft | 248 kts | 99° |
| 2026-05-04 05:55 | 35.99992 | -115.02735 | 8142 ft | 246 kts | 98° |
| 2026-05-04 05:55 | 35.99901 | -115.00620 | 7812 ft | 248 kts | 96° |
| 2026-05-04 05:55 | 35.99886 | -114.98520 | 7453 ft | 241 kts | 96° |
| 2026-05-04 05:55 | 35.99882 | -114.96481 | 7152 ft | 234 kts | 96° |
| 2026-05-04 05:56 | 35.99919 | -114.94494 | 6862 ft | 231 kts | 88° |
| 2026-05-04 05:56 | 36.00443 | -114.92607 | 6545 ft | 237 kts | 60° |
| 2026-05-04 05:56 | 36.01579 | -114.91181 | 6261 ft | 238 kts | 32° |
| 2026-05-04 05:56 | 36.03120 | -114.90484 | 5954 ft | 236 kts | 5° |
| 2026-05-04 05:57 | 36.04722 | -114.90652 | 5556 ft | 230 kts | 338° |
| 2026-05-04 05:57 | 36.06049 | -114.91589 | 5270 ft | 208 kts | 310° |
| 2026-05-04 05:57 | 36.06909 | -114.92911 | 5061 ft | 188 kts | 289° |
| 2026-05-04 05:57 | 36.07196 | -114.94367 | 4857 ft | 169 kts | 266° |
| 2026-05-04 05:58 | 36.07311 | -114.95801 | 4658 ft | 166 kts | 267° |
| 2026-05-04 05:58 | 36.07440 | -114.97226 | 4469 ft | 168 kts | 266° |
| 2026-05-04 05:58 | 36.07481 | -114.98663 | 4269 ft | 165 kts | 260° |
| 2026-05-04 05:58 | 36.07457 | -115.00086 | 3975 ft | 164 kts | 260° |
| 2026-05-04 05:59 | 36.07423 | -115.01436 | 3800 ft | 147 kts | 261° |
| 2026-05-04 05:59 | 36.07342 | -115.02629 | 3732 ft | 136 kts | 262° |
| 2026-05-04 05:59 | 36.07323 | -115.03808 | 3660 ft | 140 kts | 267° |
| 2026-05-04 05:59 | 36.07361 | -115.05005 | 3476 ft | 139 kts | 267° |
| 2026-05-04 06:00 | 36.07383 | -115.06190 | 3245 ft | 138 kts | 264° |
| 2026-05-04 06:00 | 36.07368 | -115.07350 | 3036 ft | 136 kts | 264° |
| 2026-05-04 06:00 | 36.07366 | -115.08550 | 2836 ft | 142 kts | 265° |
| 2026-05-04 06:00 | 36.07377 | -115.09767 | 2623 ft | 137 kts | 263° |
| 2026-05-04 06:01 | 36.07372 | -115.10921 | 2422 ft | 131 kts | 263° |
| 2026-05-04 06:01 | 36.07367 | -115.12031 | 2200 ft | 127 kts | 265° |
| 2026-05-04 06:03 | 36.07591 | -115.15691 | 2117 ft | 22 kts | 316° |
| 2026-05-04 06:03 | 36.07695 | -115.15805 | 2120 ft | 17 kts | 328° |
| 2026-05-04 06:05 | 36.07911 | -115.15208 | 2102 ft | 13 kts | 18° |
| 2026-05-04 06:05 | 36.08070 | -115.15209 | 2101 ft | 10 kts | 350° |
| 2026-05-04 06:05 | 36.08130 | -115.15254 | 2101 ft | 10 kts | 315° |
| 2026-05-04 06:06 | 36.08175 | -115.15273 | 2101 ft | 7 kts | 358° |
| 2026-05-04 06:06 | 36.08211 | -115.15275 | 2101 ft | 3 kts | 357° |
| 2026-05-04 06:06 | 36.08226 | -115.15276 | 2101 ft | 1 kts | 357° |
| 2026-05-04 06:06 | 36.08232 | -115.15277 | 2101 ft | 0 kts | 356° |